createdAt,value
2023-01-15T00:01:19.633Z,1.38
2023-01-15T00:03:47.068Z,1.30
2023-01-15T00:06:14.398Z,1.27
2023-01-15T00:08:41.523Z,1.20
2023-01-15T00:11:08.604Z,1.13
2023-01-15T00:13:35.751Z,1.13
2023-01-15T00:16:13.222Z,1.08
2023-01-15T00:18:40.719Z,1.35
2023-01-15T00:21:08.842Z,1.35
2023-01-15T00:23:55.109Z,1.17
2023-01-15T00:26:47.179Z,1.25
2023-01-15T00:29:14.687Z,1.15
2023-01-15T00:31:41.966Z,1.40
2023-01-15T00:34:09.163Z,1.30
2023-01-15T00:36:37.810Z,1.10
2023-01-15T00:39:05.584Z,1.08
2023-01-15T00:41:32.972Z,1.52
2023-01-15T00:44:00.148Z,1.13
2023-01-15T00:46:29.169Z,1.25
2023-01-15T00:48:56.318Z,1.13
2023-01-15T00:51:23.549Z,1.30
2023-01-15T00:53:50.864Z,1.20
2023-01-15T00:56:17.950Z,1.20
2023-01-15T00:58:47.831Z,1.52
2023-01-15T01:01:15.268Z,1.40
2023-01-15T01:03:48.850Z,1.25
2023-01-15T01:06:17.098Z,1.15
2023-01-15T01:08:46.155Z,1.67
2023-01-15T01:11:14.552Z,1.20
2023-01-15T01:13:41.921Z,1.42
2023-01-15T01:16:38.649Z,1.58
2023-01-15T01:19:07.335Z,2.13
2023-01-15T01:21:34.465Z,1.40
2023-01-15T01:24:01.991Z,1.55
2023-01-15T01:26:29.982Z,1.20
2023-01-15T01:28:57.923Z,0.95
2023-01-15T01:31:25.799Z,1.08
2023-01-15T01:33:54.065Z,1.05
2023-01-15T01:36:21.491Z,1.63
2023-01-15T01:38:52.319Z,1.15
2023-01-15T01:41:19.589Z,0.88
2023-01-15T01:43:59.026Z,1.17
2023-01-15T01:46:26.962Z,0.85
2023-01-15T01:49:00.807Z,1.27
2023-01-15T01:51:29.577Z,2.38
2023-01-15T01:53:57.261Z,0.90
2023-01-15T01:56:24.671Z,0.85
2023-01-15T01:58:53.512Z,1.00
2023-01-15T02:01:21.572Z,1.73
2023-01-15T02:03:48.960Z,1.10
2023-01-15T02:06:16.591Z,0.75
2023-01-15T02:08:44.390Z,1.67
2023-01-15T02:11:17.030Z,0.80
2023-01-15T02:13:51.959Z,1.02
2023-01-15T02:16:23.108Z,1.27
2023-01-15T02:19:02.173Z,1.85
2023-01-15T02:21:31.981Z,0.98
2023-01-15T02:24:05.743Z,0.95
2023-01-15T02:26:48.100Z,1.10
2023-01-15T02:29:18.879Z,1.30
2023-01-15T02:31:50.691Z,1.20
2023-01-15T02:34:23.189Z,1.23
2023-01-15T02:36:53.563Z,1.30
2023-01-15T02:39:22.177Z,0.90
2023-01-15T02:41:54.315Z,1.00
2023-01-15T02:44:22.952Z,1.17
2023-01-15T02:46:50.864Z,1.02
2023-01-15T02:49:19.845Z,1.30
2023-01-15T02:54:16.421Z,0.85
2023-01-15T02:56:45.625Z,0.82
2023-01-15T02:59:18.048Z,1.33
2023-01-15T03:01:46.864Z,0.82
2023-01-15T03:04:18.448Z,1.02
2023-01-15T03:06:54.757Z,1.13
2023-01-15T03:09:22.125Z,1.00
2023-01-15T03:12:15.465Z,1.25
2023-01-15T03:14:50.972Z,1.00
2023-01-15T03:17:24.368Z,1.10
2023-01-15T03:19:55.412Z,1.10
2023-01-15T03:22:33.242Z,0.93
2023-01-15T03:25:09.665Z,1.13
2023-01-15T03:27:36.893Z,1.02
2023-01-15T03:30:12.770Z,1.25
2023-01-15T03:32:40.165Z,1.08
2023-01-15T03:35:11.106Z,2.03
2023-01-15T03:37:38.269Z,1.00
2023-01-15T03:40:06.831Z,1.08
2023-01-15T03:42:48.241Z,1.35
2023-01-15T03:45:26.898Z,1.00
2023-01-15T03:47:53.993Z,1.45
2023-01-15T03:50:26.317Z,0.85
2023-01-15T03:53:03.050Z,1.10
2023-01-15T03:55:54.127Z,1.35
2023-01-15T03:58:31.468Z,0.98
2023-01-15T04:01:00.298Z,0.88
2023-01-15T04:05:56.293Z,0.93
2023-01-15T04:10:55.178Z,1.05
2023-01-15T04:13:22.489Z,1.17
2023-01-15T04:15:49.930Z,1.10
2023-01-15T04:18:17.082Z,1.15
2023-01-15T04:20:44.368Z,0.60
2023-01-15T04:23:12.018Z,1.23
2023-01-15T04:25:39.420Z,1.10
2023-01-15T04:28:06.643Z,1.00
2023-01-15T04:30:34.230Z,1.42
2023-01-15T04:33:01.489Z,0.75
2023-01-15T04:35:28.872Z,1.10
2023-01-15T04:37:59.822Z,1.00
2023-01-15T04:40:46.342Z,1.05
2023-01-15T04:43:33.114Z,1.42
2023-01-15T04:46:00.742Z,1.00
2023-01-15T04:48:27.979Z,1.35
2023-01-15T04:50:55.414Z,0.82
2023-01-15T04:53:22.624Z,1.40
2023-01-15T04:55:49.821Z,1.25
2023-01-15T04:58:17.081Z,1.35
2023-01-15T05:00:44.132Z,1.10
2023-01-15T05:03:11.291Z,1.00
2023-01-15T05:05:38.348Z,1.27
2023-01-15T05:08:05.608Z,0.85
2023-01-15T05:10:36.109Z,0.90
2023-01-15T05:13:03.238Z,1.02
2023-01-15T05:15:30.602Z,0.80
2023-01-15T05:17:57.836Z,1.00
2023-01-15T05:20:25.747Z,0.93
2023-01-15T05:22:52.941Z,0.90
2023-01-15T05:25:20.096Z,1.95
2023-01-15T05:27:47.623Z,1.08
2023-01-15T05:30:14.785Z,1.10
2023-01-15T05:32:41.980Z,0.80
2023-01-15T05:35:09.345Z,0.65
2023-01-15T05:37:36.490Z,1.45
2023-01-15T05:40:04.094Z,1.05
2023-01-15T05:42:31.242Z,1.10
2023-01-15T05:44:58.390Z,0.63
2023-01-15T05:47:25.457Z,1.45
2023-01-15T05:49:52.679Z,1.27
2023-01-15T05:52:19.803Z,1.05
2023-01-15T05:54:46.905Z,1.10
2023-01-15T05:57:14.324Z,1.20
2023-01-15T05:59:41.921Z,0.80
2023-01-15T06:02:09.224Z,1.15
2023-01-15T06:04:36.324Z,1.05
2023-01-15T06:07:03.581Z,1.20
2023-01-15T06:09:30.826Z,0.90
2023-01-15T06:11:58.001Z,0.75
2023-01-15T06:14:25.416Z,0.93
2023-01-15T06:16:52.594Z,1.08
2023-01-15T06:19:19.924Z,0.90
2023-01-15T06:21:47.370Z,0.88
2023-01-15T06:24:16.666Z,1.00
2023-01-15T06:26:43.883Z,0.98
2023-01-15T06:29:11.126Z,0.93
2023-01-15T06:31:38.262Z,0.90
2023-01-15T06:34:05.526Z,1.13
2023-01-15T06:36:34.070Z,0.70
2023-01-15T06:39:01.238Z,1.00
2023-01-15T06:41:46.889Z,0.98
2023-01-15T06:44:36.863Z,0.90
2023-01-15T06:47:21.332Z,0.70
2023-01-15T06:49:49.717Z,0.43
2023-01-15T06:52:17.104Z,1.10
2023-01-15T06:54:44.301Z,0.70
2023-01-15T06:57:11.403Z,0.82
2023-01-15T06:59:38.552Z,1.20
2023-01-15T07:02:05.640Z,0.80
2023-01-15T07:04:33.254Z,0.90
2023-01-15T07:07:00.378Z,0.90
2023-01-15T07:09:27.531Z,0.77
2023-01-15T07:11:54.641Z,0.70
2023-01-15T07:14:23.322Z,0.90
2023-01-15T07:16:51.215Z,0.80
2023-01-15T07:19:18.929Z,0.95
2023-01-15T07:21:46.180Z,0.73
2023-01-15T07:24:14.136Z,0.63
2023-01-15T07:26:42.098Z,0.82
2023-01-15T07:29:09.273Z,0.45
2023-01-15T07:31:36.449Z,1.25
2023-01-15T07:34:03.944Z,0.88
2023-01-15T07:36:31.123Z,0.65
2023-01-15T07:38:58.255Z,0.70
2023-01-15T07:41:44.211Z,1.10
2023-01-15T07:44:31.489Z,0.50
2023-01-15T07:47:17.840Z,0.82
2023-01-15T07:49:45.585Z,1.23
2023-01-15T07:52:30.915Z,1.38
2023-01-15T07:54:58.012Z,0.80
2023-01-15T07:57:25.214Z,0.60
2023-01-15T07:59:52.521Z,1.17
2023-01-15T08:02:19.900Z,1.00
2023-01-15T08:04:48.011Z,1.08
2023-01-15T08:07:15.839Z,0.80
2023-01-15T08:09:43.075Z,1.17
2023-01-15T08:12:29.710Z,0.80
2023-01-15T08:15:16.393Z,0.90
2023-01-15T08:17:44.779Z,0.75
2023-01-15T08:20:15.112Z,1.33
2023-01-15T08:22:42.641Z,0.98
2023-01-15T08:25:10.439Z,1.40
2023-01-15T08:27:38.410Z,1.65
2023-01-15T08:30:06.366Z,1.23
2023-01-15T08:32:33.535Z,0.82
2023-01-15T08:35:00.691Z,1.40
2023-01-15T08:37:28.618Z,1.02
2023-01-15T08:39:55.997Z,0.95
2023-01-15T08:42:23.193Z,0.98
2023-01-15T08:44:50.323Z,1.00
2023-01-15T08:47:17.977Z,1.05
2023-01-15T08:49:45.544Z,1.08
2023-01-15T08:52:12.689Z,0.73
2023-01-15T08:54:42.041Z,0.90
2023-01-15T08:57:10.051Z,1.10
2023-01-15T08:59:37.159Z,1.20
2023-01-15T09:02:04.548Z,0.70
2023-01-15T09:04:31.726Z,1.05
2023-01-15T09:06:58.874Z,1.00
2023-01-15T09:09:26.045Z,1.15
2023-01-15T09:11:53.262Z,0.70
2023-01-15T09:14:58.385Z,0.77
2023-01-15T09:17:07.651Z,0.70
2023-01-15T09:19:34.799Z,0.63
2023-01-15T09:22:01.918Z,1.45
2023-01-15T09:24:29.045Z,1.50
2023-01-15T09:26:56.158Z,1.17
2023-01-15T09:29:23.589Z,1.08
2023-01-15T09:31:50.740Z,0.95
2023-01-15T09:34:18.040Z,1.00
2023-01-15T09:36:46.501Z,0.60
2023-01-15T09:39:14.031Z,0.93
2023-01-15T09:42:16.560Z,1.42
2023-01-15T09:44:46.545Z,1.42
2023-01-15T09:47:39.820Z,1.08
2023-01-15T09:50:29.442Z,0.82
2023-01-15T09:52:56.679Z,1.13
2023-01-15T09:55:29.408Z,1.77
2023-01-15T09:57:58.961Z,0.82
2023-01-15T10:00:27.840Z,0.93
2023-01-15T10:03:06.148Z,1.00
2023-01-15T10:05:38.853Z,0.80
2023-01-15T10:08:12.048Z,1.10
2023-01-15T10:10:45.546Z,1.23
2023-01-15T10:13:22.557Z,0.90
2023-01-15T10:15:49.786Z,1.00
2023-01-15T10:18:21.146Z,1.02
2023-01-15T10:20:57.248Z,1.10
2023-01-15T10:23:35.708Z,1.02
2023-01-15T10:26:04.528Z,0.98
2023-01-15T10:28:34.741Z,1.25
2023-01-15T10:31:19.983Z,0.95
2023-01-15T10:34:05.800Z,0.85
2023-01-15T10:36:36.916Z,1.48
2023-01-15T10:39:14.870Z,0.90
2023-01-15T10:42:00.345Z,0.80
2023-01-15T10:44:46.437Z,1.00
2023-01-15T10:47:18.711Z,1.35
2023-01-15T10:49:46.509Z,1.02
2023-01-15T10:52:22.036Z,1.17
2023-01-15T10:54:52.565Z,1.30
2023-01-15T10:57:24.760Z,1.10
2023-01-15T10:59:57.209Z,1.00
2023-01-15T11:02:24.624Z,1.30
2023-01-15T11:04:51.836Z,0.95
2023-01-15T11:07:19.341Z,0.68
2023-01-15T11:09:46.671Z,0.85
2023-01-15T11:12:20.019Z,1.20
2023-01-15T11:15:06.119Z,1.10
2023-01-15T11:17:54.490Z,1.00
2023-01-15T11:20:35.321Z,2.05
2023-01-15T11:23:09.859Z,0.93
2023-01-15T11:25:39.538Z,1.23
2023-01-15T11:28:08.358Z,1.10
2023-01-15T11:30:39.941Z,1.67
2023-01-15T11:33:21.571Z,1.20
2023-01-15T11:35:52.589Z,0.93
2023-01-15T11:38:23.094Z,1.35
2023-01-15T11:41:01.159Z,0.70
2023-01-15T11:43:48.357Z,0.90
2023-01-15T11:46:44.063Z,0.82
2023-01-15T11:49:30.870Z,1.00
2023-01-15T11:51:59.096Z,1.00
2023-01-15T11:54:27.056Z,1.25
2023-01-15T11:56:55.104Z,1.05
2023-01-15T11:59:22.404Z,1.00
2023-01-15T12:01:59.837Z,1.00
2023-01-15T12:04:35.804Z,1.40
2023-01-15T12:07:04.722Z,1.10
2023-01-15T12:09:37.032Z,1.17
2023-01-15T12:12:16.562Z,1.17
2023-01-15T12:14:44.331Z,0.93
2023-01-15T12:17:23.708Z,1.10
2023-01-15T12:20:06.089Z,1.33
2023-01-15T12:22:33.527Z,0.68
2023-01-15T12:25:17.662Z,1.23
2023-01-15T12:28:05.554Z,1.10
2023-01-15T12:30:40.884Z,0.80
2023-01-15T12:33:10.919Z,1.30
2023-01-15T12:35:42.073Z,1.10
2023-01-15T12:38:12.420Z,0.75
2023-01-15T12:40:40.527Z,0.93
2023-01-15T12:43:32.565Z,0.80
2023-01-15T12:46:00.480Z,1.13
2023-01-15T12:48:30.701Z,0.82
2023-01-15T12:51:01.916Z,0.75
2023-01-15T12:53:32.046Z,1.17
2023-01-15T12:56:01.432Z,1.30
2023-01-15T12:58:39.743Z,1.50
2023-01-15T13:01:13.339Z,1.00
2023-01-15T13:03:49.281Z,1.30
2023-01-15T13:06:18.148Z,1.17
2023-01-15T13:08:51.857Z,1.70
2023-01-15T13:11:19.156Z,1.15
2023-01-15T13:13:58.022Z,1.50
2023-01-15T13:16:25.451Z,1.63
2023-01-15T13:19:10.991Z,1.77
2023-01-15T13:21:39.448Z,1.85
2023-01-15T13:24:25.182Z,1.58
2023-01-15T13:27:04.533Z,1.20
2023-01-15T13:29:34.767Z,1.27
2023-01-15T13:32:01.941Z,1.60
2023-01-15T13:34:29.198Z,2.13
2023-01-15T13:36:58.860Z,1.05
2023-01-15T13:39:37.072Z,2.17
2023-01-15T13:42:28.444Z,1.30
2023-01-15T13:44:55.692Z,2.00
2023-01-15T13:47:24.720Z,1.70
2023-01-15T13:52:38.007Z,1.95
2023-01-15T13:55:28.553Z,1.52
2023-01-15T13:57:55.865Z,2.33
2023-01-15T14:00:32.296Z,1.30
2023-01-15T14:03:00.820Z,1.30
2023-01-15T14:05:30.942Z,1.70
2023-01-15T14:07:58.821Z,1.30
2023-01-15T14:10:32.393Z,1.40
2023-01-15T14:13:18.366Z,1.40
2023-01-15T14:15:54.626Z,1.23
2023-01-15T14:18:33.643Z,1.63
2023-01-15T14:21:07.019Z,1.75
2023-01-15T14:23:44.927Z,1.33
2023-01-15T14:26:12.527Z,1.13
2023-01-15T14:28:39.853Z,2.38
2023-01-15T14:31:07.057Z,1.20
2023-01-15T14:33:48.544Z,1.08
2023-01-15T14:36:20.057Z,1.35
2023-01-15T14:38:56.203Z,1.30
2023-01-15T14:41:30.907Z,1.10
2023-01-15T14:43:59.607Z,1.90
2023-01-15T14:46:34.376Z,1.50
2023-01-15T14:49:02.493Z,1.00
2023-01-15T14:51:32.640Z,1.60
2023-01-15T14:54:20.130Z,1.13
2023-01-15T14:56:51.666Z,1.30
2023-01-15T14:59:22.881Z,1.83
2023-01-15T15:01:50.049Z,1.88
2023-01-15T15:04:23.795Z,1.13
2023-01-15T15:06:53.556Z,1.30
2023-01-15T15:09:28.892Z,1.90
2023-01-15T15:12:16.744Z,1.30
2023-01-15T15:14:48.621Z,1.73
2023-01-15T15:17:21.594Z,1.67
2023-01-15T15:19:54.264Z,1.58
2023-01-15T15:22:23.401Z,1.27
2023-01-15T15:24:51.932Z,1.10
2023-01-15T15:27:23.333Z,0.93
2023-01-15T15:29:50.621Z,0.80
2023-01-15T15:32:22.741Z,1.08
2023-01-15T15:34:51.382Z,1.15
2023-01-15T15:37:20.260Z,1.20
2023-01-15T15:39:54.041Z,0.85
2023-01-15T15:42:47.645Z,1.20
2023-01-15T15:48:28.840Z,0.93
2023-01-15T15:50:56.037Z,1.15
2023-01-15T15:53:23.196Z,1.10
2023-01-15T15:55:50.462Z,0.70
2023-01-15T15:58:38.550Z,0.82
2023-01-15T16:01:05.820Z,1.23
2023-01-15T16:03:34.361Z,0.95
2023-01-15T16:06:02.734Z,1.08
2023-01-15T16:08:30.702Z,0.93
2023-01-15T16:11:08.366Z,1.20
2023-01-15T16:13:43.730Z,1.10
2023-01-15T16:16:11.486Z,1.30
2023-01-15T16:18:44.665Z,1.52
2023-01-15T16:21:17.056Z,1.10
2023-01-15T16:23:46.023Z,1.40
2023-01-15T16:26:15.824Z,1.70
2023-01-15T16:28:49.149Z,2.10
2023-01-15T16:31:17.632Z,2.05
2023-01-15T16:33:44.957Z,1.90
2023-01-15T16:36:12.254Z,1.63
2023-01-15T16:38:43.280Z,1.80
2023-01-15T16:41:20.634Z,1.52
2023-01-15T16:43:58.846Z,1.73
2023-01-15T16:46:27.123Z,1.73
2023-01-15T16:49:14.363Z,3.20
2023-01-15T16:51:43.120Z,3.17
2023-01-15T16:54:29.377Z,1.52
2023-01-15T16:56:57.797Z,2.65
2023-01-15T16:59:27.984Z,2.42
2023-01-15T17:02:05.349Z,1.80
2023-01-15T17:04:36.522Z,1.88
2023-01-15T17:07:08.459Z,2.97
2023-01-15T17:09:37.184Z,1.58
2023-01-15T17:12:06.666Z,2.53
2023-01-15T17:14:33.757Z,2.58
2023-01-15T17:17:16.121Z,1.85
2023-01-15T17:19:43.286Z,1.60
2023-01-15T17:22:21.305Z,1.95
2023-01-15T17:24:53.051Z,1.65
2023-01-15T17:27:20.526Z,1.45
2023-01-15T17:29:47.819Z,1.80
2023-01-15T17:32:16.461Z,2.13
2023-01-15T17:34:43.806Z,2.22
2023-01-15T17:37:10.968Z,2.03
2023-01-15T17:39:38.140Z,2.20
2023-01-15T17:42:12.428Z,2.08
2023-01-15T17:44:39.570Z,2.92
2023-01-15T17:47:06.723Z,1.52
2023-01-15T17:49:33.891Z,2.17
2023-01-15T17:52:01.674Z,2.03
2023-01-15T17:54:47.471Z,2.25
2023-01-15T17:57:33.318Z,2.10
2023-01-15T18:00:19.412Z,2.20
2023-01-15T18:03:05.714Z,2.35
2023-01-15T18:05:35.331Z,2.03
2023-01-15T18:08:03.867Z,2.50
2023-01-15T18:10:31.818Z,1.90
2023-01-15T18:12:59.040Z,2.60
2023-01-15T18:15:26.194Z,1.75
2023-01-15T18:17:53.677Z,2.40
2023-01-15T18:20:20.955Z,1.40
2023-01-15T18:22:48.133Z,1.98
2023-01-15T18:25:15.366Z,1.98
2023-01-15T18:27:43.354Z,1.00
2023-01-15T18:30:12.218Z,1.30
2023-01-15T18:32:39.967Z,1.63
2023-01-15T18:35:07.322Z,1.60
2023-01-15T18:37:34.925Z,1.83
2023-01-15T18:40:02.139Z,1.48
2023-01-15T18:42:47.806Z,1.73
2023-01-15T18:45:33.792Z,3.38
2023-01-15T18:48:02.543Z,1.75
2023-01-15T18:50:30.487Z,2.70
2023-01-15T18:52:58.131Z,1.42
2023-01-15T18:55:28.602Z,1.85
2023-01-15T18:57:56.243Z,1.70
2023-01-15T19:00:24.615Z,2.28
2023-01-15T19:02:52.698Z,2.58
2023-01-15T19:05:19.922Z,1.85
2023-01-15T19:07:47.511Z,1.73
2023-01-15T19:10:15.442Z,1.20
2023-01-15T19:12:44.658Z,1.70
2023-01-15T19:15:32.498Z,1.50
2023-01-15T19:18:18.832Z,1.17
2023-01-15T19:20:46.350Z,1.35
2023-01-15T19:23:13.532Z,1.50
2023-01-15T19:25:42.886Z,1.80
2023-01-15T19:28:11.182Z,2.00
2023-01-15T19:30:39.652Z,2.13
2023-01-15T19:33:07.765Z,1.92
2023-01-15T19:35:36.620Z,1.60
2023-01-15T19:38:08.133Z,2.25
2023-01-15T19:40:40.295Z,1.80
2023-01-15T19:43:26.198Z,2.15
2023-01-15T19:46:12.308Z,2.60
2023-01-15T19:48:58.386Z,4.75
2023-01-15T19:51:48.310Z,1.75
2023-01-15T19:54:35.896Z,1.85
2023-01-15T19:57:03.149Z,1.70
2023-01-15T19:59:30.360Z,2.20
2023-01-15T20:01:57.578Z,2.60
2023-01-15T20:04:24.756Z,1.20
2023-01-15T20:06:53.866Z,2.63
2023-01-15T20:09:21.214Z,2.03
2023-01-15T20:12:07.555Z,1.80
2023-01-15T20:14:34.755Z,1.80
2023-01-15T20:17:01.960Z,1.35
2023-01-15T20:19:29.124Z,1.70
2023-01-15T20:21:56.272Z,3.85
2023-01-15T20:24:23.540Z,1.58
2023-01-15T20:26:57.188Z,2.58
2023-01-15T20:29:24.503Z,1.60
2023-01-15T20:31:51.724Z,2.58
2023-01-15T20:34:18.954Z,2.08
2023-01-15T20:36:46.120Z,2.00
2023-01-15T20:39:14.914Z,1.45
2023-01-15T20:42:00.787Z,1.85
2023-01-15T20:44:46.665Z,2.80
2023-01-15T20:47:33.059Z,8.43
2023-01-15T20:50:00.216Z,7.28
2023-01-15T20:52:27.512Z,3.53
2023-01-15T20:54:54.666Z,4.65
2023-01-15T20:57:21.859Z,5.60
2023-01-15T20:59:49.138Z,2.63
2023-01-15T21:02:16.258Z,3.67
2023-01-15T21:04:43.463Z,4.93
2023-01-15T21:07:10.637Z,3.40
2023-01-15T21:09:37.781Z,2.70
2023-01-15T21:12:05.195Z,8.27
2023-01-15T21:14:32.355Z,3.70
2023-01-15T21:16:59.619Z,7.00
2023-01-15T21:19:26.861Z,2.67
2023-01-15T21:21:54.047Z,2.72
2023-01-15T21:24:21.456Z,2.20
2023-01-15T21:26:48.851Z,2.10
2023-01-15T21:29:16.563Z,2.33
2023-01-15T21:31:44.317Z,2.22
2023-01-15T21:34:11.789Z,2.17
2023-01-15T21:36:39.174Z,2.50
2023-01-15T21:39:06.445Z,2.83
2023-01-15T21:41:52.506Z,1.88
2023-01-15T21:44:32.603Z,2.20
2023-01-15T21:47:00.846Z,1.90
2023-01-15T21:49:29.007Z,1.63
2023-01-15T21:51:56.159Z,1.98
2023-01-15T21:54:23.597Z,2.00
2023-01-15T21:56:50.727Z,1.75
2023-01-15T21:59:19.588Z,1.55
2023-01-15T22:01:47.879Z,1.88
2023-01-15T22:04:15.085Z,1.90
2023-01-15T22:06:42.296Z,1.65
2023-01-15T22:09:09.393Z,2.00
2023-01-15T22:11:43.852Z,1.70
2023-01-15T22:14:14.404Z,1.65
2023-01-15T22:16:41.641Z,1.60
2023-01-15T22:19:09.534Z,1.67
2023-01-15T22:21:36.699Z,2.10
2023-01-15T22:24:04.583Z,2.00
2023-01-15T22:26:32.093Z,2.53
2023-01-15T22:28:59.866Z,1.63
2023-01-15T22:31:27.807Z,1.90
2023-01-15T22:33:55.372Z,2.05
2023-01-15T22:36:24.145Z,1.67
2023-01-15T22:38:54.588Z,1.70
2023-01-15T22:41:45.265Z,2.60
2023-01-15T22:44:13.230Z,1.90
2023-01-15T22:46:40.388Z,1.60
2023-01-15T22:49:07.536Z,1.60
2023-01-15T22:51:34.759Z,1.33
2023-01-15T22:54:02.082Z,1.40
2023-01-15T22:56:29.698Z,1.90
2023-01-15T22:58:57.026Z,1.63
2023-01-15T23:01:24.799Z,1.92
2023-01-15T23:03:52.103Z,1.50
2023-01-15T23:06:19.564Z,1.80
2023-01-15T23:08:46.776Z,1.10
2023-01-15T23:11:15.479Z,1.40
2023-01-15T23:13:42.958Z,1.50
2023-01-15T23:16:10.484Z,1.52
2023-01-15T23:18:38.100Z,1.50
2023-01-15T23:21:12.879Z,1.27
2023-01-15T23:23:40.783Z,1.50
2023-01-15T23:26:09.394Z,1.40
2023-01-15T23:28:36.596Z,1.30
2023-01-15T23:31:03.860Z,1.88
2023-01-15T23:33:31.169Z,1.30
2023-01-15T23:36:01.680Z,1.83
2023-01-15T23:38:29.311Z,1.73
2023-01-15T23:40:56.455Z,1.30
2023-01-15T23:43:42.479Z,1.50
2023-01-15T23:46:40.507Z,1.50
2023-01-15T23:49:11.953Z,1.80
2023-01-15T23:51:39.247Z,1.90
2023-01-15T23:54:08.775Z,1.50
2023-01-15T23:56:35.895Z,1.38
2023-01-15T23:59:02.994Z,2.10
